Time;durP1;ratioP1;P1;durP2;ratioP2;P2;SDS_P1;SDS_P2;PMS_P1;PMS_P2;Temp;Humidity;BMP_temperature;BMP_pressure;BME280_temperature;BME280_humidity;BME280_pressure;Samples;Min_cycle;Max_cycle;Signal;HPM_P1;HPM_P2
2022/12/30 00:02:05;;;;;;;17.60;2.88;;;7.50;82.70;;;;;;5066435;28;20260;-73
2022/12/30 00:04:32;;;;;;;15.05;2.60;;;7.50;82.80;;;;;;5065019;28;20079;-74
2022/12/30 00:07:00;;;;;;;16.83;2.42;;;7.50;82.70;;;;;;5047799;28;20099;-73
2022/12/30 00:09:27;;;;;;;14.50;2.45;;;7.50;82.70;;;;;;5045186;28;20653;-73
2022/12/30 00:33:05;;;;;;;14.73;2.60;;;7.50;82.60;;;;;;5036457;28;20080;-74
2022/12/30 00:34:17;;;;;;;12.90;1.98;;;7.40;83.10;;;;;;5049155;28;20041;-73
2022/12/30 00:36:44;;;;;;;18.15;2.50;;;7.40;83.20;;;;;;5032730;28;20537;-73
2022/12/30 00:39:11;;;;;;;11.20;2.20;;;7.40;83.30;;;;;;5039860;28;20176;-74
2022/12/30 00:44:23;;;;;;;14.95;2.75;;;7.30;83.30;;;;;;5049156;28;20033;-73
2022/12/30 00:46:50;;;;;;;13.20;2.40;;;7.30;83.40;;;;;;5041250;28;21004;-73
2022/12/30 00:57:33;;;;;;;13.68;2.08;;;7.20;83.50;;;;;;5065153;28;20122;-74
2022/12/30 01:00:00;;;;;;;13.70;1.95;;;7.20;83.50;;;;;;5048781;28;20067;-73
2022/12/30 01:02:28;;;;;;;11.75;2.55;;;7.20;83.60;;;;;;5049244;28;20080;-74
2022/12/30 01:04:56;;;;;;;12.70;2.00;;;7.20;83.70;;;;;;5035072;28;20037;-73
2022/12/30 01:07:23;;;;;;;11.02;1.85;;;7.20;83.60;;;;;;5034745;28;20320;-73
2022/12/30 01:09:50;;;;;;;14.75;1.88;;;7.20;83.60;;;;;;5047124;28;21018;-73
2022/12/30 01:12:17;;;;;;;16.73;2.95;;;7.20;83.50;;;;;;5067079;28;20509;-73
2022/12/30 01:14:47;;;;;;;14.70;2.47;;;7.20;83.60;;;;;;5050254;28;20103;-73
2022/12/30 01:17:17;;;;;;;12.83;2.37;;;7.20;83.60;;;;;;5070203;28;20049;-73
2022/12/30 01:19:44;;;;;;;15.90;2.47;;;7.10;83.60;;;;;;5064840;28;21073;-73
2022/12/30 01:22:13;;;;;;;13.15;2.00;;;7.10;83.70;;;;;;5052161;28;20045;-73
2022/12/30 01:24:40;;;;;;;13.63;2.60;;;7.00;83.60;;;;;;5052175;28;20053;-73
2022/12/30 01:27:07;;;;;;;11.70;2.10;;;7.00;83.60;;;;;;5052289;28;20063;-74
2022/12/30 01:29:36;;;;;;;12.40;1.73;;;7.00;83.60;;;;;;5069109;28;20045;-73
2022/12/30 01:32:05;;;;;;;13.82;2.13;;;7.00;83.60;;;;;;5029030;28;20252;-73
2022/12/30 01:34:32;;;;;;;14.02;2.28;;;7.00;83.70;;;;;;5064448;28;20060;-72
2022/12/30 01:36:59;;;;;;;14.52;2.17;;;7.00;83.60;;;;;;5051954;28;20799;-74
2022/12/30 01:39:27;;;;;;;12.00;1.80;;;7.00;83.60;;;;;;5050925;28;20556;-73
2022/12/30 01:41:55;;;;;;;17.70;3.03;;;7.00;83.80;;;;;;5067627;28;20578;-73
2022/12/30 01:44:57;;;;;;;11.82;1.95;;;7.00;83.90;;;;;;5051738;28;20302;-73
2022/12/30 01:47:36;;;;;;;15.45;2.22;;;7.00;83.80;;;;;;5003899;28;20059;-73
2022/12/30 01:50:12;;;;;;;10.25;1.90;;;7.00;83.90;;;;;;4985958;28;20053;-73
2022/12/30 01:52:47;;;;;;;11.45;2.47;;;7.00;83.90;;;;;;5016924;28;20079;-73
2022/12/30 01:55:19;;;;;;;16.20;2.43;;;6.90;84.10;;;;;;5046524;28;20071;-73
2022/12/30 01:57:50;;;;;;;17.25;2.67;;;6.90;84.20;;;;;;5051703;28;20315;-74
2022/12/30 02:00:19;;;;;;;13.95;2.33;;;6.90;84.30;;;;;;5049777;28;20052;-74
2022/12/30 02:02:46;;;;;;;16.42;2.80;;;6.90;84.30;;;;;;5069444;28;20513;-73
2022/12/30 02:05:15;;;;;;;17.90;2.95;;;6.90;84.40;;;;;;5070279;28;20060;-73
2022/12/30 02:07:45;;;;;;;15.10;2.40;;;6.90;84.50;;;;;;5048953;28;20075;-73
2022/12/30 02:10:13;;;;;;;13.40;2.55;;;6.90;84.50;;;;;;5069769;28;20331;-73
2022/12/30 02:12:41;;;;;;;11.68;2.50;;;6.90;84.50;;;;;;5069875;28;20057;-73
2022/12/30 02:15:10;;;;;;;19.15;2.95;;;6.90;84.60;;;;;;5065963;28;20045;-73
2022/12/30 02:17:47;;;;;;;13.77;1.90;;;6.90;84.70;;;;;;5051022;28;20053;-73
2022/12/30 02:20:47;;;;;;;15.53;2.70;;;6.90;84.70;;;;;;5026254;28;20125;-73
2022/12/30 02:23:42;;;;;;;14.40;2.00;;;6.90;84.70;;;;;;5062067;28;20339;-73
2022/12/30 02:26:42;;;;;;;14.77;1.90;;;6.80;84.80;;;;;;5045905;28;20052;-74
2022/12/30 02:29:51;;;;;;;15.00;2.45;;;6.80;84.80;;;;;;5034886;28;20041;-73
2022/12/30 02:32:26;;;;;;;13.60;2.38;;;6.80;85.00;;;;;;5035624;28;20049;-73
2022/12/30 02:34:59;;;;;;;12.33;2.50;;;6.80;85.00;;;;;;5065727;28;20688;-73
2022/12/30 02:37:34;;;;;;;10.40;2.05;;;6.80;85.00;;;;;;5050665;28;20271;-73
2022/12/30 02:40:13;;;;;;;10.55;2.08;;;6.80;85.00;;;;;;5028763;28;20058;-74
2022/12/30 02:45:34;;;;;;;16.00;2.40;;;6.80;85.10;;;;;;5050733;28;20616;-73
2022/12/30 02:48:08;;;;;;;13.20;2.37;;;6.70;85.10;;;;;;5034092;28;20922;-73
2022/12/30 02:53:27;;;;;;;16.55;2.33;;;6.70;85.00;;;;;;5050645;28;20116;-73
2022/12/30 02:55:55;;;;;;;16.33;2.72;;;6.70;85.20;;;;;;5061678;28;20487;-73
2022/12/30 02:58:26;;;;;;;12.95;1.75;;;6.70;85.20;;;;;;5046105;28;20049;-73
2022/12/30 03:04:11;;;;;;;11.23;2.03;;;6.70;85.20;;;;;;5046437;28;20267;-73
2022/12/30 03:06:52;;;;;;;13.65;2.08;;;6.70;85.20;;;;;;5032653;28;20081;-73
2022/12/30 03:09:28;;;;;;;11.63;2.20;;;6.70;85.10;;;;;;5073059;28;20135;-73
2022/12/30 03:12:03;;;;;;;10.85;1.73;;;6.70;85.10;;;;;;5051588;28;20161;-73
2022/12/30 03:14:35;;;;;;;11.03;1.57;;;6.70;85.20;;;;;;5051830;28;20186;-74
2022/12/30 03:17:07;;;;;;;12.77;1.58;;;6.70;85.10;;;;;;5069070;28;20295;-73
2022/12/30 03:19:40;;;;;;;8.80;1.20;;;6.60;85.10;;;;;;5060758;28;20050;-73
2022/12/30 03:27:03;;;;;;;9.10;1.83;;;6.60;85.10;;;;;;5051030;28;20049;-73
2022/12/30 03:27:47;;;;;;;11.57;2.30;;;6.60;85.30;;;;;;5065735;28;20060;-73
2022/12/30 03:30:17;;;;;;;7.82;1.20;;;6.60;85.20;;;;;;5048833;28;20746;-74
2022/12/30 03:32:45;;;;;;;12.52;1.75;;;6.60;85.30;;;;;;5015446;28;20168;-74
2022/12/30 03:35:16;;;;;;;9.52;1.73;;;6.60;85.20;;;;;;5049831;28;20140;-73
2022/12/30 03:37:48;;;;;;;9.60;1.63;;;6.50;85.30;;;;;;5069345;28;20080;-74
2022/12/30 03:40:20;;;;;;;10.77;1.50;;;6.50;85.30;;;;;;5069068;28;20069;-73
2022/12/30 03:42:48;;;;;;;10.07;1.75;;;6.50;85.20;;;;;;5048945;28;20346;-73
2022/12/30 03:45:17;;;;;;;10.43;1.40;;;6.40;85.30;;;;;;5031382;28;20579;-74
2022/12/30 03:47:46;;;;;;;11.93;1.77;;;6.40;85.20;;;;;;5034018;28;20144;-73
2022/12/30 03:50:15;;;;;;;12.75;1.60;;;6.40;85.30;;;;;;5068789;28;20083;-73
2022/12/30 03:52:42;;;;;;;9.40;1.63;;;6.40;85.40;;;;;;5067622;28;20136;-73
2022/12/30 03:55:10;;;;;;;8.13;1.55;;;6.40;85.30;;;;;;5069325;28;20344;-74
2022/12/30 03:57:37;;;;;;;15.18;1.80;;;6.30;85.30;;;;;;5051050;28;20045;-73
2022/12/30 04:00:08;;;;;;;12.15;2.08;;;6.30;85.40;;;;;;5050680;28;20081;-73
2022/12/30 04:02:39;;;;;;;11.00;1.50;;;6.30;85.50;;;;;;5045998;28;20061;-74
2022/12/30 04:05:07;;;;;;;7.70;1.70;;;6.30;85.40;;;;;;5023161;28;20071;-74
2022/12/30 04:07:35;;;;;;;13.55;2.03;;;6.20;85.60;;;;;;5049375;28;20306;-73
2022/12/30 04:10:05;;;;;;;14.25;2.20;;;6.30;85.80;;;;;;5048852;28;20056;-73
2022/12/30 04:12:32;;;;;;;10.43;1.38;;;6.30;85.70;;;;;;5068709;28;20080;-74
2022/12/30 04:15:00;;;;;;;9.35;1.73;;;6.20;85.60;;;;;;5034511;28;20049;-73
2022/12/30 04:17:27;;;;;;;12.47;2.37;;;6.20;85.60;;;;;;5050883;28;20051;-73
2022/12/30 04:19:55;;;;;;;9.48;1.95;;;6.20;85.80;;;;;;5068161;28;20756;-73
2022/12/30 04:22:23;;;;;;;10.95;1.77;;;6.20;85.70;;;;;;5046955;28;20144;-74
2022/12/30 04:25:16;;;;;;;10.75;2.03;;;6.20;85.70;;;;;;5049109;28;20049;-73
2022/12/30 04:27:43;;;;;;;7.13;1.30;;;6.10;85.70;;;;;;5048200;28;20053;-74
2022/12/30 04:30:13;;;;;;;6.13;1.17;;;6.10;85.70;;;;;;5048903;28;20053;-73
2022/12/30 04:32:41;;;;;;;8.85;1.70;;;6.20;85.80;;;;;;5067474;28;20295;-73
2022/12/30 04:35:08;;;;;;;12.90;2.03;;;6.10;85.70;;;;;;5067766;28;20084;-73
2022/12/30 04:37:36;;;;;;;10.63;1.52;;;6.10;85.70;;;;;;5049204;28;20536;-73
2022/12/30 04:40:04;;;;;;;9.18;1.90;;;6.10;85.70;;;;;;5051639;28;20096;-73
2022/12/30 04:42:32;;;;;;;10.13;2.00;;;6.10;85.70;;;;;;5049982;28;20148;-74
2022/12/30 04:45:00;;;;;;;11.88;2.33;;;6.00;85.80;;;;;;5047787;28;20347;-73
2022/12/30 04:47:29;;;;;;;10.05;2.05;;;6.00;85.80;;;;;;5054524;28;20080;-73
2022/12/30 04:49:57;;;;;;;12.68;2.08;;;6.00;85.90;;;;;;5051776;28;20055;-73
2022/12/30 04:52:24;;;;;;;11.55;2.38;;;6.00;85.80;;;;;;5033867;28;20056;-74
2022/12/30 04:54:52;;;;;;;8.57;2.73;;;6.00;85.90;;;;;;5036833;28;20041;-73
2022/12/30 04:57:19;;;;;;;15.20;2.20;;;6.00;85.80;;;;;;5053933;28;20395;-73
2022/12/30 04:59:48;;;;;;;9.52;1.70;;;6.00;85.90;;;;;;5039900;28;20049;-74
2022/12/30 05:02:16;;;;;;;12.43;2.35;;;6.00;85.90;;;;;;5052544;28;20550;-73
2022/12/30 05:04:44;;;;;;;10.00;2.33;;;5.90;86.00;;;;;;5050766;28;20049;-73
2022/12/30 05:07:11;;;;;;;7.87;1.60;;;5.90;85.90;;;;;;5070255;28;20211;-74
2022/12/30 05:09:37;;;;;;;6.05;1.45;;;5.90;85.70;;;;;;5036726;28;20342;-73
2022/12/30 05:12:05;;;;;;;10.48;2.05;;;5.90;85.80;;;;;;5071608;28;20488;-74
2022/12/30 05:14:32;;;;;;;8.55;1.52;;;5.90;85.70;;;;;;5071209;28;20059;-73
2022/12/30 05:17:01;;;;;;;12.63;2.35;;;5.90;85.70;;;;;;5071280;28;20137;-73
2022/12/30 05:19:28;;;;;;;11.33;1.80;;;5.80;85.70;;;;;;5050518;28;20115;-74
2022/12/30 05:21:56;;;;;;;10.00;1.90;;;5.80;85.70;;;;;;5065105;28;20856;-74
2022/12/30 05:27:07;;;;;;;7.55;1.85;;;5.70;85.80;;;;;;5053290;28;20098;-74
2022/12/30 05:29:34;;;;;;;10.50;2.17;;;5.70;85.80;;;;;;5052719;28;20136;-73
2022/12/30 05:32:03;;;;;;;9.43;1.80;;;5.70;85.70;;;;;;5052604;28;20053;-73
2022/12/30 05:34:33;;;;;;;11.25;1.95;;;5.70;85.70;;;;;;5052678;28;20256;-73
2022/12/30 05:37:00;;;;;;;10.05;1.67;;;5.70;85.80;;;;;;5036464;28;20163;-74
2022/12/30 05:39:27;;;;;;;8.75;1.60;;;5.70;85.80;;;;;;5050259;28;20048;-73
2022/12/30 05:41:54;;;;;;;10.05;1.80;;;5.70;85.80;;;;;;5052591;28;20139;-73
2022/12/30 05:44:25;;;;;;;8.20;1.70;;;5.60;85.80;;;;;;5048475;28;20281;-73
2022/12/30 05:46:52;;;;;;;11.10;2.30;;;5.60;85.80;;;;;;5052420;28;20253;-73
2022/12/30 05:49:21;;;;;;;12.35;1.83;;;5.60;86.00;;;;;;5070678;28;20052;-73
2022/12/30 05:51:49;;;;;;;10.45;1.55;;;5.60;86.00;;;;;;5051516;28;20360;-74
2022/12/30 05:54:17;;;;;;;12.43;2.05;;;5.60;86.00;;;;;;5070566;28;20055;-73
2022/12/30 05:56:43;;;;;;;7.87;1.73;;;5.60;86.10;;;;;;5034713;28;20060;-73
2022/12/30 05:59:10;;;;;;;9.65;1.73;;;5.60;86.10;;;;;;5052668;28;21242;-73
2022/12/30 06:01:38;;;;;;;7.40;1.30;;;5.60;86.10;;;;;;5070434;28;20049;-73
2022/12/30 06:04:05;;;;;;;9.10;1.83;;;5.50;86.00;;;;;;5034379;28;20145;-73
2022/12/30 06:06:34;;;;;;;9.55;1.77;;;5.60;86.10;;;;;;5049303;28;20049;-74
2022/12/30 06:09:01;;;;;;;7.30;1.87;;;5.60;86.00;;;;;;5050069;28;20822;-73
2022/12/30 06:11:28;;;;;;;6.10;0.93;;;5.50;86.20;;;;;;5051395;28;20829;-73
2022/12/30 06:13:55;;;;;;;8.50;1.73;;;5.50;86.30;;;;;;5049562;28;20111;-73
2022/12/30 06:16:22;;;;;;;8.00;1.48;;;5.50;86.20;;;;;;5069698;28;20872;-73
2022/12/30 06:18:49;;;;;;;9.57;2.10;;;5.60;86.30;;;;;;5068964;28;20746;-73
2022/12/30 06:21:16;;;;;;;8.27;1.73;;;5.60;86.30;;;;;;5069303;28;20137;-73
2022/12/30 06:23:45;;;;;;;8.50;1.70;;;5.60;86.30;;;;;;5051327;28;20362;-73
2022/12/30 06:26:12;;;;;;;8.35;1.40;;;5.60;86.20;;;;;;5048158;28;20528;-73
2022/12/30 06:28:39;;;;;;;8.27;2.05;;;5.60;86.30;;;;;;5068707;28;20065;-73
2022/12/30 06:31:06;;;;;;;10.85;1.63;;;5.60;86.20;;;;;;5049039;28;20056;-73
2022/12/30 06:33:33;;;;;;;9.03;1.93;;;5.50;86.30;;;;;;5081155;22;20054;-73
2022/12/30 06:36:00;;;;;;;9.88;2.10;;;5.60;86.40;;;;;;5049855;28;20312;-73
2022/12/30 06:38:27;;;;;;;8.48;1.85;;;5.60;86.30;;;;;;5048676;28;20061;-73
2022/12/30 06:40:55;;;;;;;11.52;2.20;;;5.60;86.20;;;;;;5048403;28;20085;-73
2022/12/30 06:43:23;;;;;;;10.32;1.70;;;5.60;86.20;;;;;;5031575;28;20084;-73
2022/12/30 06:45:51;;;;;;;8.70;1.63;;;5.60;86.10;;;;;;5047092;28;20049;-74
2022/12/30 06:48:18;;;;;;;11.32;2.40;;;5.60;86.10;;;;;;5059129;28;21358;-73
2022/12/30 06:50:45;;;;;;;8.60;1.50;;;5.50;86.00;;;;;;5059984;28;20194;-73
2022/12/30 06:53:12;;;;;;;10.02;2.17;;;5.50;86.20;;;;;;5066486;28;20053;-72
2022/12/30 06:55:40;;;;;;;10.52;1.42;;;5.60;86.20;;;;;;5052670;28;20108;-73
2022/12/30 06:58:09;;;;;;;11.43;2.17;;;5.50;86.00;;;;;;5049518;28;20056;-73
2022/12/30 07:00:37;;;;;;;13.20;2.10;;;5.50;86.10;;;;;;5035784;28;20359;-73
2022/12/30 07:03:04;;;;;;;13.73;1.90;;;5.50;86.00;;;;;;5048201;28;20053;-73
2022/12/30 07:05:31;;;;;;;11.35;1.60;;;5.60;86.00;;;;;;5047445;28;20136;-73
2022/12/30 07:08:00;;;;;;;14.85;2.47;;;5.50;86.00;;;;;;5052233;28;20639;-73
2022/12/30 07:10:28;;;;;;;10.33;2.20;;;5.50;86.00;;;;;;5068471;28;20183;-73
2022/12/30 07:12:55;;;;;;;13.60;1.80;;;5.50;86.00;;;;;;5059965;28;20252;-73
2022/12/30 07:15:23;;;;;;;14.30;1.92;;;5.50;86.10;;;;;;5068263;28;20061;-73
2022/12/30 07:17:51;;;;;;;10.52;1.75;;;5.50;86.00;;;;;;5046520;28;20528;-73
2022/12/30 07:20:18;;;;;;;9.70;1.77;;;5.50;86.00;;;;;;5029370;28;20090;-72
2022/12/30 07:22:45;;;;;;;7.67;1.40;;;5.50;86.00;;;;;;5035548;28;20061;-73
2022/12/30 07:25:12;;;;;;;10.27;1.58;;;5.50;85.90;;;;;;5047711;28;20377;-72
2022/12/30 07:27:39;;;;;;;9.98;1.95;;;5.50;86.00;;;;;;5045895;28;20132;-72
2022/12/30 07:30:07;;;;;;;9.52;1.65;;;5.50;85.90;;;;;;5036837;28;20136;-73
2022/12/30 07:32:37;;;;;;;12.68;2.38;;;5.50;86.00;;;;;;5057178;28;20567;-73
2022/12/30 07:35:07;;;;;;;7.97;1.63;;;5.50;86.00;;;;;;5045996;28;20049;-73
2022/12/30 07:37:34;;;;;;;12.10;2.28;;;5.50;86.00;;;;;;5044265;28;20257;-72
2022/12/30 07:40:05;;;;;;;11.45;2.00;;;5.50;86.10;;;;;;5041704;28;20193;-72
2022/12/30 07:42:33;;;;;;;9.73;1.60;;;5.50;86.00;;;;;;5013723;28;20059;-72
2022/12/30 07:45:00;;;;;;;9.63;1.83;;;5.50;86.10;;;;;;5045397;28;20052;-72
2022/12/30 07:47:30;;;;;;;9.33;1.30;;;5.50;86.10;;;;;;4991669;28;20406;-73
2022/12/30 07:49:59;;;;;;;8.32;1.73;;;5.50;86.20;;;;;;5065977;28;20401;-73
2022/12/30 07:52:26;;;;;;;15.00;1.95;;;5.50;86.20;;;;;;5068074;28;20060;-73
2022/12/30 07:54:54;;;;;;;10.05;2.20;;;5.50;86.30;;;;;;5048788;28;20119;-73
2022/12/30 07:57:21;;;;;;;8.35;1.55;;;5.50;86.20;;;;;;5029450;28;20494;-73
2022/12/30 07:59:48;;;;;;;6.97;1.40;;;5.50;86.20;;;;;;5047309;28;20081;-75
2022/12/30 08:02:15;;;;;;;10.88;1.55;;;5.50;86.20;;;;;;5046436;28;20785;-74
2022/12/30 08:04:42;;;;;;;7.05;1.25;;;5.50;86.20;;;;;;5046100;28;20077;-74
2022/12/30 08:07:10;;;;;;;7.28;1.52;;;5.50;86.30;;;;;;5044498;28;20897;-74
2022/12/30 08:09:37;;;;;;;9.52;1.35;;;5.50;86.20;;;;;;5054600;28;20060;-74
2022/12/30 08:12:05;;;;;;;8.53;1.70;;;5.50;86.20;;;;;;5054749;28;20132;-74
2022/12/30 08:14:32;;;;;;;9.35;1.85;;;5.50;86.30;;;;;;5063103;28;20389;-74
2022/12/30 08:17:00;;;;;;;10.85;1.77;;;5.50;86.30;;;;;;5068925;28;20457;-73
2022/12/30 08:19:28;;;;;;;7.65;1.38;;;5.40;86.30;;;;;;5040860;28;20045;-74
2022/12/30 08:21:55;;;;;;;10.13;2.17;;;5.50;86.30;;;;;;5045918;28;20060;-74
2022/12/30 08:24:23;;;;;;;10.07;1.93;;;5.50;86.30;;;;;;5047884;28;20057;-75
2022/12/30 08:26:51;;;;;;;9.98;1.30;;;5.50;86.30;;;;;;5046134;28;20469;-74
2022/12/30 08:29:19;;;;;;;10.52;1.42;;;5.50;86.40;;;;;;5050271;28;20594;-75
2022/12/30 08:31:49;;;;;;;7.70;1.30;;;5.50;86.40;;;;;;5055368;28;20049;-74
2022/12/30 08:34:17;;;;;;;13.63;1.67;;;5.40;86.50;;;;;;5044098;28;20046;-74
2022/12/30 08:36:45;;;;;;;6.03;1.17;;;5.40;86.50;;;;;;5042873;28;20050;-74
2022/12/30 08:39:14;;;;;;;7.30;1.30;;;5.40;86.60;;;;;;5041820;28;20276;-74
2022/12/30 08:41:45;;;;;;;8.73;1.67;;;5.40;86.60;;;;;;5046659;28;20089;-75
2022/12/30 08:44:13;;;;;;;8.00;1.50;;;5.40;86.70;;;;;;5046793;28;20052;-74
2022/12/30 08:46:42;;;;;;;8.73;1.90;;;5.40;86.70;;;;;;5048383;28;20045;-74
2022/12/30 08:49:10;;;;;;;11.30;1.83;;;5.50;86.80;;;;;;5043300;28;20143;-74
2022/12/30 08:51:38;;;;;;;8.20;1.52;;;5.50;86.70;;;;;;5048777;28;20427;-74
2022/12/30 08:54:05;;;;;;;10.52;2.20;;;5.50;86.80;;;;;;5031029;28;20491;-74
2022/12/30 08:56:35;;;;;;;12.63;1.98;;;5.50;86.80;;;;;;5047375;28;20682;-74
2022/12/30 08:59:05;;;;;;;9.75;2.08;;;5.50;86.80;;;;;;5039019;28;20058;-73
2022/12/30 09:01:36;;;;;;;11.67;1.93;;;5.50;86.90;;;;;;5042815;28;20135;-74
2022/12/30 09:04:06;;;;;;;11.98;1.92;;;5.50;86.90;;;;;;5042986;28;20377;-74
2022/12/30 09:06:36;;;;;;;11.55;2.08;;;5.50;86.90;;;;;;5049364;28;20056;-73
2022/12/30 09:09:08;;;;;;;8.40;1.05;;;5.50;87.00;;;;;;5049808;28;20085;-74
2022/12/30 09:11:37;;;;;;;9.43;2.15;;;5.60;86.90;;;;;;5050328;28;20164;-73
2022/12/30 09:14:07;;;;;;;5.50;1.27;;;5.60;86.90;;;;;;5046470;28;20049;-73
2022/12/30 09:16:35;;;;;;;10.50;1.75;;;5.70;86.80;;;;;;5048653;28;20352;-74
2022/12/30 09:19:02;;;;;;;5.28;1.13;;;5.70;86.80;;;;;;5035086;28;20923;-73
2022/12/30 09:21:29;;;;;;;7.28;1.02;;;5.70;86.70;;;;;;5044534;28;20081;-74
2022/12/30 09:23:56;;;;;;;6.85;1.05;;;5.70;86.80;;;;;;5030529;28;20049;-74
2022/12/30 09:26:25;;;;;;;7.80;2.10;;;5.80;86.80;;;;;;5058959;28;20452;-74
2022/12/30 09:28:53;;;;;;;8.48;1.20;;;5.80;86.70;;;;;;5059006;28;20765;-74
2022/12/30 09:31:22;;;;;;;6.00;1.00;;;5.80;86.80;;;;;;5032714;28;20056;-74
2022/12/30 09:33:48;;;;;;;8.73;1.60;;;5.80;86.90;;;;;;5054022;28;20059;-74
2022/12/30 09:36:15;;;;;;;9.40;1.70;;;5.80;86.80;;;;;;5049383;28;20663;-74
2022/12/30 09:38:43;;;;;;;7.80;1.10;;;5.80;86.90;;;;;;5048111;28;20060;-74
2022/12/30 09:41:14;;;;;;;9.05;1.65;;;5.90;86.90;;;;;;5031458;28;20338;-74
2022/12/30 09:43:55;;;;;;;10.57;1.75;;;5.90;86.80;;;;;;5039757;28;20571;-76
2022/12/30 09:46:35;;;;;;;7.22;1.50;;;6.00;86.70;;;;;;5025268;28;20072;-77
2022/12/30 09:49:04;;;;;;;9.55;1.83;;;6.00;86.60;;;;;;5040355;28;20073;-76
2022/12/30 09:51:37;;;;;;;9.43;1.63;;;6.10;86.60;;;;;;5051894;28;20073;-76
2022/12/30 09:54:11;;;;;;;8.57;1.92;;;6.10;86.30;;;;;;5055879;28;20680;-76
2022/12/30 09:56:42;;;;;;;7.00;1.42;;;6.10;86.20;;;;;;5068638;28;20045;-75
2022/12/30 09:59:14;;;;;;;8.77;1.90;;;6.10;86.20;;;;;;5060571;28;20053;-75
2022/12/30 10:01:45;;;;;;;7.18;1.45;;;6.20;86.20;;;;;;5051438;28;20164;-76
2022/12/30 10:04:15;;;;;;;8.70;1.53;;;6.20;86.10;;;;;;5069527;28;20124;-75
2022/12/30 10:06:50;;;;;;;8.00;1.38;;;6.20;86.10;;;;;;5066586;28;20332;-76
2022/12/30 10:09:36;;;;;;;10.93;1.50;;;6.20;86.10;;;;;;5043476;28;20539;-76
2022/12/30 10:12:18;;;;;;;6.63;1.50;;;6.20;86.10;;;;;;5054230;28;20306;-76
2022/12/30 10:14:56;;;;;;;6.55;1.33;;;6.30;86.10;;;;;;5066179;28;20059;-76
2022/12/30 10:17:47;;;;;;;5.90;1.03;;;6.30;86.10;;;;;;5057437;28;20074;-75
2022/12/30 10:20:26;;;;;;;6.95;1.70;;;6.30;86.10;;;;;;5050027;28;20277;-76
2022/12/30 10:23:00;;;;;;;10.40;1.92;;;6.40;85.90;;;;;;5046469;28;20053;-75
2022/12/30 10:25:35;;;;;;;6.03;1.50;;;6.40;85.90;;;;;;5058882;28;20151;-75
2022/12/30 10:28:03;;;;;;;8.68;1.83;;;6.40;85.90;;;;;;5067273;22;20060;-77
2022/12/30 10:30:37;;;;;;;10.13;1.87;;;6.50;85.50;;;;;;5007536;28;20054;-75
2022/12/30 10:33:12;;;;;;;10.10;2.28;;;6.50;85.50;;;;;;5004803;28;20253;-74
2022/12/30 10:35:40;;;;;;;7.78;1.27;;;6.60;85.20;;;;;;5019222;28;20050;-77
2022/12/30 10:38:11;;;;;;;5.95;0.95;;;6.60;85.10;;;;;;4991497;28;20132;-77
2022/12/30 10:40:51;;;;;;;6.75;1.23;;;6.60;85.00;;;;;;5012120;28;20050;-77
2022/12/30 10:43:33;;;;;;;7.77;1.13;;;6.70;84.90;;;;;;5011167;28;20069;-77
2022/12/30 10:46:34;;;;;;;5.85;1.23;;;6.70;84.70;;;;;;5025628;28;20755;-77
2022/12/30 10:49:20;;;;;;;4.70;0.90;;;6.80;84.50;;;;;;5006239;28;20069;-77
2022/12/30 10:51:49;;;;;;;7.10;0.95;;;6.80;84.40;;;;;;5025732;28;20081;-77
2022/12/30 10:54:16;;;;;;;9.80;1.50;;;6.80;84.30;;;;;;5037628;28;20693;-77
2022/12/30 10:56:45;;;;;;;4.27;0.60;;;6.90;84.10;;;;;;5040269;28;20064;-77
2022/12/30 10:59:14;;;;;;;4.68;1.10;;;6.90;84.00;;;;;;5011456;28;20320;-76
2022/12/30 11:01:43;;;;;;;5.22;1.00;;;6.90;84.10;;;;;;5019336;28;20083;-79
2022/12/30 11:04:32;;;;;;;7.57;1.15;;;7.00;83.90;;;;;;5019234;28;20060;-76
2022/12/30 11:07:02;;;;;;;4.55;1.20;;;7.00;83.30;;;;;;5011118;28;20117;-77
2022/12/30 11:09:30;;;;;;;6.63;1.23;;;7.10;82.90;;;;;;5010446;28;20570;-77
2022/12/30 11:14:57;;;;;;;6.38;1.10;;;7.20;82.90;;;;;;5018010;28;20467;-77
2022/12/30 11:17:27;;;;;;;6.57;1.33;;;7.20;82.30;;;;;;5021015;28;20061;-76
2022/12/30 11:20:00;;;;;;;8.05;1.40;;;7.20;82.60;;;;;;5033409;28;20589;-78
2022/12/30 11:22:29;;;;;;;4.13;0.80;;;7.20;82.30;;;;;;5034558;28;20057;-77
2022/12/30 11:25:01;;;;;;;7.43;1.42;;;7.30;81.80;;;;;;5036891;28;20257;-79
2022/12/30 11:27:38;;;;;;;6.38;1.17;;;7.40;82.00;;;;;;5042210;28;20147;-75
2022/12/30 11:30:18;;;;;;;6.07;1.17;;;7.40;82.00;;;;;;4991158;28;20055;-77
2022/12/30 11:32:46;;;;;;;5.20;0.80;;;7.40;81.80;;;;;;5036980;28;20125;-77
2022/12/30 11:35:34;;;;;;;6.23;1.40;;;7.40;81.70;;;;;;5021799;28;20565;-75
2022/12/30 11:38:01;;;;;;;6.43;0.90;;;7.50;81.70;;;;;;5017854;28;20325;-78
2022/12/30 11:40:33;;;;;;;4.95;0.90;;;7.50;81.50;;;;;;5036778;28;20541;-76
2022/12/30 11:43:12;;;;;;;7.00;1.00;;;7.50;81.40;;;;;;4999958;28;20546;-78
2022/12/30 11:45:56;;;;;;;3.00;0.68;;;7.50;81.60;;;;;;5019196;28;20054;-77
2022/12/30 11:48:31;;;;;;;5.83;1.07;;;7.50;81.30;;;;;;5011635;28;20128;-77
2022/12/30 11:51:02;;;;;;;4.07;0.80;;;7.60;80.90;;;;;;5035689;28;20340;-77
2022/12/30 11:53:32;;;;;;;2.88;0.50;;;7.60;81.00;;;;;;5023688;28;20151;-78
2022/12/30 11:56:00;;;;;;;6.45;1.08;;;7.60;80.90;;;;;;5005256;28;20054;-78
2022/12/30 11:58:33;;;;;;;6.80;0.80;;;7.70;81.00;;;;;;5026945;28;20657;-78
2022/12/30 12:01:03;;;;;;;5.53;1.00;;;7.70;81.00;;;;;;5005505;28;20054;-77
2022/12/30 12:03:32;;;;;;;5.47;0.70;;;7.80;80.90;;;;;;5023421;28;20344;-79
2022/12/30 12:06:10;;;;;;;4.63;0.68;;;7.80;81.10;;;;;;4997046;28;20138;-78
2022/12/30 12:08:54;;;;;;;4.95;0.85;;;7.80;80.90;;;;;;5036987;28;20142;-78
2022/12/30 12:11:26;;;;;;;5.43;0.68;;;7.80;81.00;;;;;;5005960;28;20127;-79
2022/12/30 12:14:02;;;;;;;3.53;0.53;;;7.80;80.80;;;;;;5030713;28;20137;-78
2022/12/30 12:16:38;;;;;;;5.85;0.73;;;7.80;80.40;;;;;;5038889;28;20277;-78
2022/12/30 12:19:20;;;;;;;6.10;0.65;;;7.90;80.40;;;;;;5020684;28;20137;-79
2022/12/30 12:21:53;;;;;;;6.63;0.77;;;7.90;80.30;;;;;;5019400;28;20051;-78
2022/12/30 12:24:24;;;;;;;4.40;0.63;;;8.00;80.40;;;;;;5023657;28;20054;-78
2022/12/30 12:26:58;;;;;;;3.60;0.43;;;8.00;79.90;;;;;;5022121;28;20058;-77
2022/12/30 12:29:26;;;;;;;3.35;0.43;;;8.00;80.00;;;;;;5009245;28;20750;-79
2022/12/30 12:32:35;;;;;;;6.00;1.13;;;8.00;79.90;;;;;;4992988;28;20056;-79
2022/12/30 12:35:08;;;;;;;4.70;0.65;;;8.00;79.80;;;;;;5034839;28;20054;-79
2022/12/30 12:37:49;;;;;;;6.22;0.73;;;8.10;79.70;;;;;;5030340;28;20116;-79
2022/12/30 12:40:36;;;;;;;6.17;0.90;;;8.10;79.60;;;;;;4993725;28;20147;-79
2022/12/30 12:43:15;;;;;;;5.85;1.13;;;8.10;79.70;;;;;;5005532;28;20283;-79
2022/12/30 12:46:14;;;;;;;5.85;0.60;;;8.20;79.90;;;;;;5011012;28;20164;-78
2022/12/30 12:49:10;;;;;;;7.40;0.90;;;8.20;79.80;;;;;;5024607;28;20157;-79
2022/12/30 12:51:51;;;;;;;3.60;0.80;;;8.20;79.40;;;;;;5022776;28;20540;-79
2022/12/30 12:54:41;;;;;;;5.53;0.73;;;8.20;79.70;;;;;;5004845;28;20038;-80
2022/12/30 12:57:17;;;;;;;6.53;0.82;;;8.30;79.20;;;;;;4972299;28;20309;-79
2022/12/30 13:00:07;;;;;;;8.25;1.25;;;8.30;78.90;;;;;;5031830;28;20098;-79
2022/12/30 13:03:01;;;;;;;3.95;0.75;;;8.40;78.70;;;;;;5006311;28;20053;-78
2022/12/30 13:05:34;;;;;;;5.05;0.77;;;8.40;78.60;;;;;;5030840;28;20125;-79
2022/12/30 13:08:08;;;;;;;3.50;0.63;;;8.40;78.10;;;;;;5027724;28;20084;-78
2022/12/30 13:10:43;;;;;;;5.05;0.70;;;8.50;78.00;;;;;;5010932;28;20344;-79
2022/12/30 13:13:16;;;;;;;5.13;0.65;;;8.50;77.70;;;;;;5022215;28;20534;-78
2022/12/30 13:15:46;;;;;;;5.53;0.70;;;8.60;77.60;;;;;;5036108;28;20056;-78
2022/12/30 13:18:18;;;;;;;7.65;0.88;;;8.60;77.30;;;;;;5010990;28;20534;-78
2022/12/30 13:20:49;;;;;;;4.57;1.10;;;8.60;77.40;;;;;;5009263;28;20046;-77
2022/12/30 13:23:19;;;;;;;4.50;0.60;;;8.60;77.30;;;;;;5023557;28;20368;-78
2022/12/30 13:25:55;;;;;;;5.85;0.70;;;8.60;77.60;;;;;;5018831;28;20053;-77
2022/12/30 13:28:26;;;;;;;5.05;0.57;;;8.60;77.10;;;;;;5036448;28;20081;-78
2022/12/30 13:31:05;;;;;;;3.40;0.50;;;8.60;77.20;;;;;;5010320;28;20061;-76
2022/12/30 13:33:42;;;;;;;4.40;0.60;;;8.60;76.30;;;;;;5008928;28;20128;-77
2022/12/30 13:36:16;;;;;;;4.18;1.00;;;8.70;76.70;;;;;;5012186;28;20352;-77
2022/12/30 13:38:55;;;;;;;5.30;0.93;;;8.70;76.50;;;;;;5005764;28;20129;-77
2022/12/30 13:41:52;;;;;;;5.15;1.00;;;8.80;76.70;;;;;;4991150;28;20050;-77
2022/12/30 13:44:21;;;;;;;7.10;1.10;;;8.80;76.50;;;;;;5007431;28;20114;-78
2022/12/30 13:46:51;;;;;;;5.20;0.70;;;8.80;76.60;;;;;;5008591;28;20582;-77
2022/12/30 13:49:26;;;;;;;5.88;0.60;;;8.90;75.90;;;;;;5009054;28;20372;-77
2022/12/30 13:51:57;;;;;;;3.80;0.63;;;8.80;76.30;;;;;;5012553;28;20050;-78
2022/12/30 13:54:25;;;;;;;7.53;0.80;;;8.90;76.10;;;;;;5010208;28;20065;-79
2022/12/30 13:56:55;;;;;;;3.08;0.40;;;8.90;76.40;;;;;;5016242;28;20046;-76
2022/12/30 13:59:31;;;;;;;3.77;0.60;;;8.90;75.70;;;;;;5012879;28;20080;-77
2022/12/30 14:02:37;;;;;;;5.65;0.57;;;9.00;75.30;;;;;;5041893;28;20283;-77
2022/12/30 14:05:46;;;;;;;3.65;0.47;;;9.00;75.50;;;;;;4996281;28;20150;-77